Time;durP1;ratioP1;P1;durP2;ratioP2;P2;SDS_P1;SDS_P2;PMS_P1;PMS_P2;Temp;Humidity;BMP_temperature;BMP_pressure;BME280_temperature;BME280_humidity;BME280_pressure;Samples;Min_cycle;Max_cycle;Signal;HPM_P1;HPM_P2
2024/02/24 00:00:36;;;;;;;78.33;73.63;;;5.70;99.90;;;;;;5058012;28;20039;-70
2024/02/24 00:03:02;;;;;;;79.30;74.97;;;5.70;99.90;;;;;;5074608;28;20493;-72
2024/02/24 00:05:28;;;;;;;64.73;60.93;;;5.70;99.90;;;;;;5093520;28;20039;-72
2024/02/24 00:07:54;;;;;;;66.57;62.73;;;5.70;99.90;;;;;;5093901;28;20381;-71
2024/02/24 00:10:21;;;;;;;73.57;69.57;;;5.70;99.90;;;;;;5084042;28;20038;-72
2024/02/24 00:12:47;;;;;;;77.40;72.93;;;5.70;99.90;;;;;;5067666;28;20049;-72
2024/02/24 00:15:13;;;;;;;73.50;69.03;;;5.70;99.90;;;;;;5071935;28;20032;-72
2024/02/24 00:17:39;;;;;;;75.90;71.53;;;5.70;99.90;;;;;;5091322;28;20466;-72
2024/02/24 00:20:06;;;;;;;71.27;67.10;;;5.80;99.90;;;;;;5073152;28;20039;-72
2024/02/24 00:22:33;;;;;;;81.40;76.80;;;5.80;99.90;;;;;;5072870;28;20051;-72
2024/02/24 00:24:59;;;;;;;76.20;71.93;;;5.90;99.90;;;;;;5083689;28;20046;-72
2024/02/24 00:27:25;;;;;;;60.20;56.77;;;5.90;99.90;;;;;;5086702;28;20035;-72
2024/02/24 00:29:51;;;;;;;70.37;66.27;;;5.80;99.90;;;;;;5076404;28;20025;-72
2024/02/24 00:32:17;;;;;;;62.33;58.73;;;5.80;99.90;;;;;;5079886;28;20114;-72
2024/02/24 00:34:44;;;;;;;55.57;52.17;;;5.80;99.90;;;;;;5092707;28;20031;-72
2024/02/24 00:37:10;;;;;;;61.53;57.97;;;5.80;99.90;;;;;;5086092;28;20029;-71
2024/02/24 00:39:37;;;;;;;72.97;68.97;;;5.80;99.90;;;;;;5072895;28;20035;-72
2024/02/24 00:42:07;;;;;;;67.60;63.63;;;5.80;99.90;;;;;;5072552;28;20040;-71
2024/02/24 00:44:33;;;;;;;73.93;69.63;;;5.80;99.90;;;;;;5052791;28;20044;-71
2024/02/24 00:46:59;;;;;;;55.57;52.37;;;5.80;99.90;;;;;;5054928;28;20041;-71
2024/02/24 00:49:25;;;;;;;64.23;60.57;;;5.80;99.90;;;;;;5066924;28;20099;-71
2024/02/24 00:51:51;;;;;;;76.03;71.90;;;5.70;99.90;;;;;;5073247;28;20501;-71
2024/02/24 00:54:17;;;;;;;81.03;76.37;;;5.70;99.90;;;;;;5072878;28;20036;-71
2024/02/24 00:56:44;;;;;;;87.83;82.93;;;5.70;99.90;;;;;;5071165;28;20040;-71
2024/02/24 00:59:10;;;;;;;75.50;71.00;;;5.70;99.90;;;;;;5071677;28;20036;-71
2024/02/24 01:01:36;;;;;;;90.40;85.47;;;5.60;99.90;;;;;;5071777;28;20048;-72
2024/02/24 01:04:03;;;;;;;83.57;78.87;;;5.70;99.90;;;;;;5073148;28;20041;-71
2024/02/24 01:06:29;;;;;;;88.93;83.93;;;5.70;99.90;;;;;;5072492;28;20039;-71
2024/02/24 01:08:55;;;;;;;80.33;75.30;;;5.70;99.90;;;;;;5072043;28;20463;-71
2024/02/24 01:11:21;;;;;;;92.07;86.90;;;5.70;99.90;;;;;;5063145;28;20037;-71
2024/02/24 01:13:47;;;;;;;81.37;77.00;;;5.70;99.90;;;;;;5052935;28;20044;-72
2024/02/24 01:16:13;;;;;;;84.47;79.43;;;5.70;99.90;;;;;;5066751;28;20036;-72
2024/02/24 01:18:39;;;;;;;87.37;82.57;;;5.60;99.90;;;;;;5076860;28;20058;-71
2024/02/24 01:21:05;;;;;;;87.70;82.67;;;5.60;99.90;;;;;;5061402;28;20039;-71
2024/02/24 01:23:32;;;;;;;81.23;76.40;;;5.60;99.90;;;;;;5078262;28;20036;-71
2024/02/24 01:25:58;;;;;;;75.97;71.40;;;5.60;99.90;;;;;;5091493;28;20032;-71
2024/02/24 01:28:24;;;;;;;77.23;72.80;;;5.60;99.90;;;;;;5086371;28;20037;-72
2024/02/24 01:30:50;;;;;;;84.80;80.13;;;5.50;99.90;;;;;;5075497;28;20036;-71
2024/02/24 01:33:16;;;;;;;75.37;70.83;;;5.50;99.90;;;;;;5072840;28;20449;-71
2024/02/24 01:35:43;;;;;;;93.67;88.60;;;5.50;99.90;;;;;;5071430;28;20024;-71
2024/02/24 01:38:09;;;;;;;67.73;64.00;;;5.60;99.90;;;;;;5071564;28;20059;-71
2024/02/24 01:40:35;;;;;;;70.47;66.33;;;5.60;99.90;;;;;;5087039;28;20040;-71
2024/02/24 01:43:02;;;;;;;71.03;67.03;;;5.60;99.90;;;;;;5089531;28;20040;-71
2024/02/24 01:45:28;;;;;;;72.07;67.87;;;5.50;99.90;;;;;;5070439;28;20040;-71
2024/02/24 01:47:56;;;;;;;80.77;76.33;;;5.50;99.90;;;;;;5071289;28;20040;-71
2024/02/24 01:50:23;;;;;;;76.40;71.80;;;5.50;99.90;;;;;;5077648;28;20043;-71
2024/02/24 01:52:49;;;;;;;77.13;73.03;;;5.50;99.90;;;;;;5084462;28;20393;-71
2024/02/24 01:55:16;;;;;;;77.63;72.93;;;5.60;99.90;;;;;;5071795;28;20033;-71
2024/02/24 01:57:45;;;;;;;74.93;70.73;;;5.60;99.90;;;;;;5070220;28;20047;-71
2024/02/24 02:00:12;;;;;;;79.83;74.97;;;5.60;99.90;;;;;;5065444;28;20024;-71
2024/02/24 02:02:39;;;;;;;81.23;76.60;;;5.60;99.90;;;;;;5072187;28;20463;-71
2024/02/24 02:05:06;;;;;;;79.87;75.30;;;5.60;99.90;;;;;;5067157;28;20048;-72
2024/02/24 02:07:32;;;;;;;78.20;73.73;;;5.60;99.90;;;;;;5083101;28;20036;-71
2024/02/24 02:09:58;;;;;;;76.33;71.90;;;5.60;99.90;;;;;;5075690;28;20070;-71
2024/02/24 02:12:25;;;;;;;80.13;75.50;;;5.70;99.90;;;;;;5082613;28;20049;-72
2024/02/24 02:14:51;;;;;;;84.80;79.77;;;5.70;99.90;;;;;;5092381;28;20035;-71
2024/02/24 02:17:18;;;;;;;81.63;76.97;;;5.60;99.90;;;;;;5083382;28;20369;-71
2024/02/24 02:19:44;;;;;;;81.67;76.97;;;5.60;99.90;;;;;;5070822;28;20029;-71
2024/02/24 02:22:14;;;;;;;80.57;75.93;;;5.60;99.90;;;;;;5071665;28;20055;-71
2024/02/24 02:24:40;;;;;;;78.63;74.27;;;5.60;99.90;;;;;;5089727;28;20042;-71
2024/02/24 02:27:07;;;;;;;75.10;70.87;;;5.60;99.90;;;;;;5080921;28;20471;-72
2024/02/24 02:29:33;;;;;;;91.77;86.73;;;5.60;99.90;;;;;;5079267;28;20040;-72
2024/02/24 02:32:00;;;;;;;94.67;89.47;;;5.60;99.90;;;;;;5089319;28;20040;-71
2024/02/24 02:34:26;;;;;;;80.33;75.90;;;5.60;99.90;;;;;;5076652;28;20049;-71
2024/02/24 02:36:52;;;;;;;74.40;70.37;;;5.60;99.90;;;;;;5086503;28;20024;-71
2024/02/24 02:39:18;;;;;;;94.93;89.70;;;5.50;99.90;;;;;;5074822;28;20039;-71
2024/02/24 02:41:45;;;;;;;89.10;84.40;;;5.40;99.90;;;;;;5075691;28;20028;-71
2024/02/24 02:44:11;;;;;;;81.30;76.43;;;5.50;99.90;;;;;;5076115;28;20067;-72
2024/02/24 02:46:37;;;;;;;76.37;72.33;;;5.50;99.90;;;;;;5092738;28;20036;-72
2024/02/24 02:49:03;;;;;;;68.03;64.17;;;5.40;99.90;;;;;;5084204;28;20040;-71
2024/02/24 02:51:29;;;;;;;59.23;55.67;;;5.40;99.90;;;;;;5082000;28;20032;-71
2024/02/24 02:53:56;;;;;;;58.50;55.27;;;5.40;99.90;;;;;;5095664;28;20474;-71
2024/02/24 02:56:22;;;;;;;50.63;48.00;;;5.40;99.90;;;;;;5082372;28;20028;-72
2024/02/24 02:58:48;;;;;;;58.77;55.40;;;5.30;99.90;;;;;;5093969;28;20032;-71
2024/02/24 03:01:15;;;;;;;38.13;35.83;;;5.30;99.90;;;;;;5074172;28;20039;-71
2024/02/24 03:03:41;;;;;;;53.03;50.10;;;5.40;99.90;;;;;;5071230;28;20386;-71
2024/02/24 03:06:07;;;;;;;49.50;46.63;;;5.40;99.90;;;;;;5065374;28;20039;-71
2024/02/24 03:08:33;;;;;;;51.57;48.73;;;5.40;99.90;;;;;;5076057;28;20028;-71
2024/02/24 03:11:01;;;;;;;58.33;55.00;;;5.40;99.90;;;;;;5072978;28;20043;-71
2024/02/24 03:13:28;;;;;;;70.80;66.97;;;5.40;99.90;;;;;;5082794;28;20075;-72
2024/02/24 03:15:54;;;;;;;50.93;48.07;;;5.40;99.90;;;;;;5077367;28;20033;-71
2024/02/24 03:18:20;;;;;;;54.00;50.97;;;5.30;99.90;;;;;;5067401;28;20043;-72
2024/02/24 03:20:46;;;;;;;52.77;49.63;;;5.40;99.90;;;;;;5072971;28;20383;-71
2024/02/24 03:23:13;;;;;;;52.00;49.13;;;5.40;99.90;;;;;;5073598;28;20028;-71
2024/02/24 03:25:39;;;;;;;51.03;48.17;;;5.40;99.90;;;;;;5072551;28;20028;-71
2024/02/24 03:28:05;;;;;;;49.40;46.70;;;5.40;99.90;;;;;;5078570;28;20401;-71
2024/02/24 03:30:31;;;;;;;48.93;45.90;;;5.40;99.90;;;;;;5090703;28;20040;-71
2024/02/24 03:32:57;;;;;;;51.70;48.77;;;5.40;99.90;;;;;;5091836;28;20035;-72
2024/02/24 03:35:24;;;;;;;54.43;51.23;;;5.40;99.90;;;;;;5082528;28;20039;-72
2024/02/24 03:37:50;;;;;;;51.47;48.50;;;5.40;99.90;;;;;;5069233;28;20036;-71
2024/02/24 03:40:16;;;;;;;53.97;50.87;;;5.50;99.90;;;;;;5074239;28;20063;-71
2024/02/24 03:42:42;;;;;;;51.77;48.63;;;5.50;99.90;;;;;;5091537;28;20036;-72
2024/02/24 03:45:09;;;;;;;49.77;46.33;;;5.50;99.90;;;;;;5089890;28;20055;-71
2024/02/24 03:47:35;;;;;;;82.43;77.60;;;5.60;99.90;;;;;;5092812;28;20103;-71
2024/02/24 03:50:02;;;;;;;59.17;55.77;;;5.50;99.90;;;;;;5094750;28;20028;-71
2024/02/24 03:52:28;;;;;;;62.10;58.33;;;5.40;99.90;;;;;;5077753;28;20033;-71
2024/02/24 03:54:54;;;;;;;70.20;66.00;;;5.40;99.90;;;;;;5073554;28;20035;-71
2024/02/24 03:57:20;;;;;;;63.27;59.57;;;5.40;99.90;;;;;;5077861;28;20043;-71
2024/02/24 03:59:46;;;;;;;68.07;64.33;;;5.40;99.90;;;;;;5073873;28;20032;-71
2024/02/24 04:02:12;;;;;;;58.63;55.00;;;5.50;99.90;;;;;;5084095;28;20051;-72
2024/02/24 04:04:38;;;;;;;50.43;47.33;;;5.50;99.90;;;;;;5074169;28;20429;-71
2024/02/24 04:07:05;;;;;;;50.37;47.30;;;5.60;99.90;;;;;;5073036;28;20040;-71
2024/02/24 04:09:31;;;;;;;53.50;50.13;;;5.50;99.90;;;;;;5073768;28;20032;-71
2024/02/24 04:11:57;;;;;;;65.70;61.80;;;5.50;99.90;;;;;;5073639;28;20471;-71
2024/02/24 04:14:23;;;;;;;58.33;55.03;;;5.50;99.90;;;;;;5070569;28;20047;-72
2024/02/24 04:16:49;;;;;;;60.57;57.13;;;5.50;99.90;;;;;;5073927;28;20036;-71
2024/02/24 04:19:15;;;;;;;51.23;48.07;;;5.40;99.90;;;;;;5072465;28;20515;-71
2024/02/24 04:21:41;;;;;;;46.87;44.00;;;5.40;99.90;;;;;;5076008;28;20040;-71
2024/02/24 04:24:08;;;;;;;60.23;56.70;;;5.40;99.90;;;;;;5086727;28;20052;-71
2024/02/24 04:26:34;;;;;;;58.10;54.87;;;5.30;99.90;;;;;;5075158;28;20028;-71
2024/02/24 04:29:00;;;;;;;69.73;65.90;;;5.30;99.90;;;;;;5072373;28;20470;-71
2024/02/24 04:31:26;;;;;;;53.17;50.10;;;5.30;99.90;;;;;;5076142;28;20040;-71
2024/02/24 04:33:53;;;;;;;57.10;53.93;;;5.30;99.90;;;;;;5081475;28;20040;-71
2024/02/24 04:36:19;;;;;;;58.67;55.50;;;5.40;99.90;;;;;;5077005;28;20462;-72
2024/02/24 04:38:45;;;;;;;51.07;48.13;;;5.30;99.90;;;;;;5072618;28;20044;-71
2024/02/24 04:41:11;;;;;;;56.73;53.73;;;5.20;99.90;;;;;;5072505;28;20036;-71
2024/02/24 04:43:37;;;;;;;48.67;45.60;;;5.20;99.90;;;;;;5090130;28;20040;-71
2024/02/24 04:46:04;;;;;;;56.10;52.77;;;5.20;99.90;;;;;;5083745;28;20439;-71
2024/02/24 04:48:30;;;;;;;41.83;39.40;;;5.20;99.90;;;;;;5071882;28;20052;-71
2024/02/24 04:50:56;;;;;;;53.70;50.77;;;5.30;99.90;;;;;;5076090;28;20043;-71
2024/02/24 04:53:23;;;;;;;58.20;55.10;;;5.30;99.90;;;;;;5083552;28;20040;-71
2024/02/24 04:55:49;;;;;;;50.77;47.47;;;5.20;99.90;;;;;;5073104;28;20033;-71
2024/02/24 04:58:15;;;;;;;59.47;56.00;;;5.20;99.90;;;;;;5072060;28;20048;-71
2024/02/24 05:00:41;;;;;;;73.70;69.57;;;5.20;99.90;;;;;;5074851;28;20032;-71
2024/02/24 05:03:07;;;;;;;54.70;51.43;;;5.10;99.90;;;;;;5092413;28;20028;-71
2024/02/24 05:05:33;;;;;;;66.17;62.23;;;5.10;99.90;;;;;;5091427;28;20052;-71
2024/02/24 05:07:59;;;;;;;72.07;67.83;;;5.10;99.90;;;;;;5077408;28;20035;-71
2024/02/24 05:10:25;;;;;;;72.17;68.07;;;5.10;99.90;;;;;;5090210;28;20036;-71
2024/02/24 05:12:51;;;;;;;77.17;72.97;;;5.10;99.90;;;;;;5089542;28;20048;-71
2024/02/24 05:15:17;;;;;;;69.70;65.57;;;5.10;99.90;;;;;;5091717;28;20423;-71
2024/02/24 05:17:44;;;;;;;55.83;52.43;;;5.10;99.90;;;;;;5083996;28;20047;-71
2024/02/24 05:20:12;;;;;;;111.50;62.77;;;5.10;99.90;;;;;;5089628;28;20036;-71
2024/02/24 05:22:38;;;;;;;55.63;49.73;;;5.10;99.90;;;;;;5087833;28;20044;-70
2024/02/24 05:25:06;;;;;;;118.57;55.73;;;5.20;99.90;;;;;;5082339;28;20039;-70
2024/02/24 05:27:32;;;;;;;527.93;99.03;;;5.20;99.90;;;;;;5079158;28;20020;-70
2024/02/24 05:29:59;;;;;;;93.37;88.13;;;5.10;99.90;;;;;;5087449;28;20477;-71
2024/02/24 05:32:25;;;;;;;78.03;73.53;;;5.20;99.90;;;;;;5078692;28;20058;-70
2024/02/24 05:34:51;;;;;;;96.83;89.50;;;5.20;99.90;;;;;;5074982;28;20478;-70
2024/02/24 05:37:17;;;;;;;148.70;72.40;;;5.10;99.90;;;;;;5071698;28;20037;-72
2024/02/24 05:39:45;;;;;;;238.10;84.70;;;5.10;99.90;;;;;;5071949;28;20044;-69
2024/02/24 05:42:12;;;;;;;175.53;73.10;;;5.10;99.90;;;;;;5077848;28;20044;-70
2024/02/24 05:44:38;;;;;;;82.50;77.17;;;5.20;99.90;;;;;;5092283;28;20036;-70
2024/02/24 05:47:05;;;;;;;87.27;82.40;;;5.20;99.90;;;;;;5086556;28;20409;-70
2024/02/24 05:49:31;;;;;;;81.90;77.40;;;5.20;99.90;;;;;;5071741;28;20405;-72
2024/02/24 05:51:57;;;;;;;88.13;82.80;;;5.20;99.90;;;;;;5078642;28;20029;-72
2024/02/24 05:54:23;;;;;;;101.13;92.93;;;5.20;99.90;;;;;;5072627;28;20467;-71
2024/02/24 05:56:49;;;;;;;85.00;58.97;;;5.10;99.90;;;;;;5070846;28;20052;-72
2024/02/24 05:59:16;;;;;;;64.63;61.03;;;5.10;99.90;;;;;;5074617;28;20044;-72
2024/02/24 06:01:42;;;;;;;65.93;62.17;;;5.10;99.90;;;;;;5085730;28;20044;-72
2024/02/24 06:04:08;;;;;;;64.20;60.40;;;5.00;99.90;;;;;;5079221;28;20432;-72
2024/02/24 06:06:34;;;;;;;52.83;49.63;;;5.00;99.90;;;;;;5083425;28;20028;-72
2024/02/24 06:09:01;;;;;;;272.23;59.03;;;5.10;99.90;;;;;;5077003;28;20031;-72
2024/02/24 06:11:27;;;;;;;72.53;68.27;;;5.00;99.90;;;;;;5072814;28;20040;-71
2024/02/24 06:13:53;;;;;;;174.23;68.30;;;5.00;99.90;;;;;;5083845;28;20024;-71
2024/02/24 06:16:19;;;;;;;64.00;60.03;;;4.90;99.90;;;;;;5080543;28;20044;-72
2024/02/24 06:18:45;;;;;;;104.13;58.70;;;4.90;99.90;;;;;;5054644;28;20029;-71
2024/02/24 06:21:11;;;;;;;204.27;88.83;;;4.90;99.90;;;;;;5074056;28;20510;-68
2024/02/24 06:23:37;;;;;;;457.47;89.10;;;4.90;99.90;;;;;;5074665;28;20037;-72
2024/02/24 06:26:04;;;;;;;56.53;53.03;;;5.00;99.90;;;;;;5070963;28;20505;-71
2024/02/24 06:28:30;;;;;;;99.83;47.10;;;5.00;99.90;;;;;;5068300;28;20040;-71
2024/02/24 06:30:57;;;;;;;54.10;50.83;;;4.90;99.90;;;;;;5070877;28;20032;-71
2024/02/24 06:33:23;;;;;;;41.37;39.03;;;4.90;99.90;;;;;;5071283;28;20513;-72
2024/02/24 06:35:49;;;;;;;58.43;54.57;;;4.90;99.90;;;;;;5071055;28;20029;-72
2024/02/24 06:38:16;;;;;;;64.67;60.70;;;4.90;99.90;;;;;;5067790;28;20040;-71
2024/02/24 06:40:42;;;;;;;66.40;60.93;;;4.90;99.90;;;;;;5070121;28;20040;-71
2024/02/24 06:43:08;;;;;;;94.83;56.13;;;4.80;99.90;;;;;;5070943;28;20032;-71
2024/02/24 06:45:34;;;;;;;49.70;46.87;;;4.90;99.90;;;;;;5071254;28;20037;-71
2024/02/24 06:48:00;;;;;;;43.10;40.67;;;4.90;99.90;;;;;;5062603;28;20037;-72
2024/02/24 06:50:27;;;;;;;38.57;36.27;;;4.80;99.90;;;;;;5070340;28;20091;-71
2024/02/24 06:52:53;;;;;;;52.90;49.90;;;4.80;99.90;;;;;;5070129;28;20037;-71
2024/02/24 06:55:19;;;;;;;63.20;59.80;;;4.80;99.90;;;;;;5071081;28;20347;-71
2024/02/24 06:57:45;;;;;;;49.67;46.33;;;4.90;99.90;;;;;;5070896;28;20043;-72
2024/02/24 07:00:12;;;;;;;55.53;52.20;;;4.90;99.90;;;;;;5069828;28;20044;-72
2024/02/24 07:02:38;;;;;;;115.17;67.07;;;4.90;99.90;;;;;;5070841;28;20041;-71
2024/02/24 07:05:08;;;;;;;55.57;52.43;;;4.90;99.90;;;;;;5069598;28;20044;-74
2024/02/24 07:07:35;;;;;;;118.23;71.20;;;4.90;99.90;;;;;;5068252;28;20517;-73
2024/02/24 07:10:04;;;;;;;45.90;43.13;;;4.90;99.90;;;;;;5069350;28;20092;-73
2024/02/24 07:12:31;;;;;;;57.30;53.87;;;4.90;99.90;;;;;;5074542;28;20044;-73
2024/02/24 07:14:58;;;;;;;179.77;70.80;;;4.90;99.90;;;;;;5074376;28;20044;-73
2024/02/24 07:17:24;;;;;;;89.17;84.30;;;4.80;99.90;;;;;;5073296;28;20036;-73
2024/02/24 07:19:50;;;;;;;120.17;109.77;;;4.80;99.90;;;;;;5073560;28;20462;-73
2024/02/24 07:22:16;;;;;;;557.33;138.70;;;4.90;99.90;;;;;;5074177;28;20036;-73
2024/02/24 07:24:42;;;;;;;86.57;80.67;;;5.00;99.90;;;;;;5073801;28;20386;-73
2024/02/24 07:27:09;;;;;;;78.47;73.53;;;5.00;99.90;;;;;;5073819;28;20033;-73
2024/02/24 07:29:35;;;;;;;70.03;63.57;;;5.10;99.90;;;;;;5065379;28;20040;-73
2024/02/24 07:32:02;;;;;;;100.00;76.73;;;5.10;99.90;;;;;;5074100;28;20041;-73
2024/02/24 07:34:28;;;;;;;145.17;129.57;;;5.10;99.90;;;;;;5074400;28;20394;-73
2024/02/24 07:36:54;;;;;;;90.27;82.83;;;5.10;99.90;;;;;;5073901;28;20039;-73
2024/02/24 07:39:20;;;;;;;71.40;65.90;;;5.10;99.90;;;;;;5073502;28;20040;-73
2024/02/24 07:41:46;;;;;;;64.27;60.47;;;5.10;99.90;;;;;;5073919;28;20406;-73
2024/02/24 07:44:13;;;;;;;78.83;72.77;;;5.10;99.90;;;;;;5074076;28;20044;-73
2024/02/24 07:46:39;;;;;;;92.03;86.43;;;5.10;99.90;;;;;;5073198;28;20067;-73
2024/02/24 07:49:05;;;;;;;96.60;90.53;;;5.10;99.90;;;;;;5073606;28;20040;-73
2024/02/24 07:51:31;;;;;;;138.67;130.53;;;5.10;99.90;;;;;;5072919;28;20048;-73
2024/02/24 07:53:57;;;;;;;95.63;90.10;;;5.20;99.90;;;;;;5073455;28;20039;-73
2024/02/24 07:56:23;;;;;;;90.30;84.67;;;5.40;99.90;;;;;;5073143;28;20508;-73
2024/02/24 07:58:50;;;;;;;96.60;90.47;;;5.60;99.90;;;;;;5072599;28;20036;-73
2024/02/24 08:01:16;;;;;;;96.97;91.63;;;5.90;99.90;;;;;;5073034;28;20036;-73
2024/02/24 08:03:42;;;;;;;81.57;77.03;;;6.10;99.90;;;;;;5074233;28;20032;-73
2024/02/24 08:06:08;;;;;;;67.93;64.18;;;6.30;99.90;;;;;;5073268;28;20044;-73
2024/02/24 08:08:36;;;;;;;124.82;117.88;;;6.60;99.90;;;;;;5073191;28;20039;-73
2024/02/24 08:11:03;;;;;;;182.05;171.80;;;6.80;99.90;;;;;;5069742;28;20502;-73
2024/02/24 08:13:29;;;;;;;117.63;110.90;;;7.10;99.90;;;;;;5054038;28;20666;-72
2024/02/24 08:15:55;;;;;;;101.63;96.07;;;7.20;99.90;;;;;;5055902;28;20402;-73
2024/02/24 08:18:22;;;;;;;72.90;68.57;;;7.40;99.90;;;;;;5060799;28;20024;-72
2024/02/24 08:20:49;;;;;;;70.50;66.07;;;7.70;99.90;;;;;;5056299;28;20371;-73
2024/02/24 08:23:15;;;;;;;72.90;68.95;;;7.90;99.90;;;;;;5067442;28;20044;-73
2024/02/24 08:25:41;;;;;;;80.00;74.70;;;8.00;99.90;;;;;;5060953;28;20044;-72
2024/02/24 08:28:07;;;;;;;62.53;58.33;;;8.10;99.90;;;;;;5059816;28;20032;-72
2024/02/24 08:30:33;;;;;;;141.25;131.25;;;8.40;99.90;;;;;;5067208;28;20414;-71
2024/02/24 08:32:59;;;;;;;229.40;215.77;;;8.70;99.90;;;;;;5064146;28;20033;-71
2024/02/24 08:35:25;;;;;;;212.73;200.15;;;8.50;99.90;;;;;;5063294;28;20578;-71
2024/02/24 08:37:51;;;;;;;172.70;162.18;;;8.60;99.90;;;;;;5070123;28;20032;-71
2024/02/24 08:40:18;;;;;;;219.15;205.93;;;8.70;99.90;;;;;;5067483;28;20379;-71
2024/02/24 08:42:44;;;;;;;320.15;301.02;;;8.70;99.90;;;;;;5062967;28;20033;-71
2024/02/24 08:45:10;;;;;;;309.33;291.15;;;8.90;99.90;;;;;;5063881;28;20391;-71
2024/02/24 08:47:36;;;;;;;146.15;138.10;;;9.00;99.90;;;;;;5068627;28;20024;-71
2024/02/24 08:50:03;;;;;;;239.25;224.55;;;9.20;99.90;;;;;;5056542;28;20029;-71
2024/02/24 08:52:29;;;;;;;1999.90;999.90;;;9.30;99.90;;;;;;5067082;28;20047;-72
2024/02/24 08:54:55;;;;;;;1999.90;999.90;;;9.30;99.90;;;;;;5057283;28;20025;-72
2024/02/24 08:57:21;;;;;;;1999.90;999.90;;;9.50;99.90;;;;;;5067488;28;20043;-72
2024/02/24 08:59:48;;;;;;;1999.90;999.90;;;9.60;99.90;;;;;;5063906;28;20029;-72
2024/02/24 09:02:15;;;;;;;1999.90;999.90;;;9.70;99.90;;;;;;5059690;28;20044;-72
2024/02/24 09:04:41;;;;;;;1999.90;999.90;;;9.80;99.90;;;;;;5063567;28;20045;-72
2024/02/24 09:07:07;;;;;;;1999.90;999.90;;;9.90;99.90;;;;;;5054915;28;20036;-73
2024/02/24 09:09:33;;;;;;;1999.90;999.90;;;10.00;99.90;;;;;;5064144;28;20048;-72
2024/02/24 09:11:59;;;;;;;1999.90;999.90;;;10.30;99.90;;;;;;5067229;28;20048;-72
2024/02/24 09:14:25;;;;;;;1999.90;999.90;;;10.40;99.90;;;;;;5070661;28;20358;-72
2024/02/24 09:16:58;;;;;;;1999.90;999.90;;;10.50;99.90;;;;;;5066524;28;20037;-72
2024/02/24 09:19:26;;;;;;;1999.90;999.90;;;10.60;99.90;;;;;;5052817;28;20037;-73
2024/02/24 09:21:52;;;;;;;1999.90;999.90;;;10.80;99.90;;;;;;5055647;28;20032;-72
2024/02/24 09:24:18;;;;;;;1999.90;999.90;;;10.60;99.90;;;;;;5068796;28;20031;-72
2024/02/24 09:26:44;;;;;;;1999.90;999.90;;;10.50;99.90;;;;;;5060421;28;20490;-70
2024/02/24 09:29:10;;;;;;;1999.90;999.90;;;10.30;99.90;;;;;;5054311;28;20028;-71
2024/02/24 09:31:36;;;;;;;1999.90;999.90;;;10.40;99.90;;;;;;5057546;28;20135;-72
2024/02/24 09:34:02;;;;;;;1999.90;999.90;;;10.50;99.90;;;;;;5066957;28;20040;-72
2024/02/24 09:36:29;;;;;;;1999.90;999.90;;;10.50;99.90;;;;;;5059895;28;20024;-72
2024/02/24 09:38:55;;;;;;;1999.90;999.90;;;10.60;99.90;;;;;;5057784;28;20028;-72
2024/02/24 09:41:21;;;;;;;1999.90;999.90;;;10.70;99.90;;;;;;5068832;28;20040;-72
2024/02/24 09:43:47;;;;;;;1999.90;999.90;;;10.80;99.90;;;;;;5070028;28;20467;-72
2024/02/24 09:46:14;;;;;;;1999.90;999.90;;;11.00;99.90;;;;;;5060111;28;20051;-72
2024/02/24 09:48:42;;;;;;;1999.90;999.90;;;11.10;99.90;;;;;;5051309;28;20036;-71
2024/02/24 09:51:08;;;;;;;1999.90;999.90;;;11.20;99.90;;;;;;5065449;28;20052;-72
2024/02/24 09:53:35;;;;;;;1999.90;999.90;;;11.40;99.90;;;;;;5067032;28;20391;-72
2024/02/24 09:56:01;;;;;;;1999.90;999.90;;;11.50;99.90;;;;;;5061317;28;20028;-71
2024/02/24 09:58:28;;;;;;;1999.90;999.90;;;11.60;99.90;;;;;;5064563;28;20031;-71
2024/02/24 10:00:54;;;;;;;1999.90;999.90;;;11.50;99.90;;;;;;5065501;28;20036;-72
2024/02/24 10:03:21;;;;;;;1999.90;999.90;;;11.50;99.90;;;;;;5061238;28;20024;-72
2024/02/24 10:05:50;;;;;;;1999.90;999.90;;;11.50;99.90;;;;;;5054604;28;20143;-72
2024/02/24 10:08:17;;;;;;;1999.90;999.90;;;11.60;99.90;;;;;;5066959;28;20421;-72
2024/02/24 10:10:43;;;;;;;1999.90;999.90;;;11.60;99.90;;;;;;5065969;28;20033;-71
2024/02/24 10:13:10;;;;;;;1999.90;999.90;;;11.60;99.90;;;;;;5069107;28;20052;-72
2024/02/24 10:15:36;;;;;;;1999.90;999.90;;;11.60;99.90;;;;;;5062911;28;20048;-72
2024/02/24 10:18:02;;;;;;;1999.90;999.90;;;11.50;99.90;;;;;;5051004;28;20025;-72
2024/02/24 10:20:29;;;;;;;1999.90;999.90;;;11.30;99.90;;;;;;5076008;28;20039;-71
2024/02/24 10:22:56;;;;;;;1999.90;999.90;;;11.00;99.90;;;;;;5065721;28;20371;-72
2024/02/24 10:25:22;;;;;;;1999.90;999.90;;;10.90;99.90;;;;;;5070286;28;20386;-71
2024/02/24 10:27:48;;;;;;;1999.90;999.90;;;10.80;99.90;;;;;;5064923;28;20033;-72
2024/02/24 10:30:14;;;;;;;1999.90;999.90;;;10.90;99.90;;;;;;5059388;28;20479;-72
2024/02/24 10:32:43;;;;;;;1999.90;999.90;;;10.90;99.90;;;;;;5066752;28;20379;-71
2024/02/24 10:35:10;;;;;;;1999.90;999.90;;;10.90;99.90;;;;;;5071639;28;20028;-72
2024/02/24 10:37:36;;;;;;;1999.90;999.90;;;11.00;99.90;;;;;;5066117;28;20037;-72
2024/02/24 10:40:04;;;;;;;1999.90;999.90;;;11.20;99.90;;;;;;5064112;28;20051;-72
2024/02/24 10:42:30;;;;;;;1999.90;999.90;;;11.20;99.90;;;;;;5061449;28;20760;-72
2024/02/24 10:44:56;;;;;;;1999.90;999.90;;;11.20;99.90;;;;;;5066721;28;20044;-72
2024/02/24 10:47:22;;;;;;;1999.90;999.90;;;11.20;99.90;;;;;;5072852;28;20048;-72
2024/02/24 10:49:48;;;;;;;1999.90;999.90;;;11.30;99.90;;;;;;5061672;28;20056;-72
2024/02/24 10:52:18;;;;;;;1999.90;999.90;;;11.40;99.90;;;;;;5072180;28;20032;-72
2024/02/24 10:54:48;;;;;;;1999.90;999.90;;;11.50;99.90;;;;;;5072961;28;20423;-72
2024/02/24 10:57:14;;;;;;;1999.90;999.90;;;11.60;99.90;;;;;;5050970;28;20024;-72
2024/02/24 10:59:40;;;;;;;1999.90;999.90;;;11.50;99.90;;;;;;5056031;28;20051;-72
2024/02/24 11:02:07;;;;;;;1999.90;999.90;;;11.50;99.90;;;;;;5065061;28;20498;-72
2024/02/24 11:04:35;;;;;;;1999.90;999.90;;;11.50;99.90;;;;;;5051320;28;20021;-72
2024/02/24 11:07:01;;;;;;;1999.90;999.90;;;11.40;99.90;;;;;;5063264;28;20041;-72
2024/02/24 11:09:34;;;;;;;1999.90;999.90;;;11.30;99.90;;;;;;5068937;28;20029;-72
2024/02/24 11:12:03;;;;;;;1999.90;999.90;;;11.30;99.90;;;;;;5073130;28;20059;-72
2024/02/24 11:14:31;;;;;;;1999.90;999.90;;;11.30;99.90;;;;;;5062513;28;20028;-72
2024/02/24 11:16:58;;;;;;;1999.90;999.90;;;11.40;99.90;;;;;;5054689;28;20040;-72
2024/02/24 11:19:53;;;;;;;1999.90;999.90;;;11.50;99.90;;;;;;5059674;28;20029;-72
2024/02/24 11:22:21;;;;;;;1999.90;999.90;;;11.60;99.90;;;;;;5070651;28;20052;-72
2024/02/24 11:25:02;;;;;;;1999.90;999.90;;;11.50;99.90;;;;;;5072803;28;20055;-72
2024/02/24 11:27:31;;;;;;;1999.90;999.90;;;11.50;99.90;;;;;;5068675;28;20040;-72
2024/02/24 11:29:58;;;;;;;1999.90;999.90;;;11.50;99.90;;;;;;5078590;28;20039;-72
2024/02/24 11:32:24;;;;;;;1999.90;999.90;;;11.50;99.90;;;;;;5072129;28;20489;-72
2024/02/24 11:34:50;;;;;;;1999.90;999.90;;;11.40;99.90;;;;;;5068144;28;20025;-72
2024/02/24 11:37:17;;;;;;;1999.90;999.90;;;11.40;99.90;;;;;;5070939;28;20036;-72
2024/02/24 11:39:44;;;;;;;1999.90;999.90;;;11.30;99.90;;;;;;5067185;28;20485;-71
2024/02/24 11:42:11;;;;;;;1999.90;999.90;;;11.30;99.90;;;;;;5072432;28;20502;-71
2024/02/24 11:44:41;;;;;;;1999.90;999.90;;;11.20;99.90;;;;;;5072409;28;20064;-71
2024/02/24 11:47:08;;;;;;;1999.90;999.90;;;11.20;99.90;;;;;;5071342;28;20418;-72
2024/02/24 11:49:34;;;;;;;1999.90;999.90;;;11.20;99.90;;;;;;5071287;28;20040;-71
2024/02/24 11:52:00;;;;;;;1999.90;999.90;;;11.20;99.90;;;;;;5073596;28;20072;-71
2024/02/24 11:54:26;;;;;;;1999.90;999.90;;;11.30;99.90;;;;;;5072580;28;20426;-71
2024/02/24 11:56:52;;;;;;;1999.90;999.90;;;11.20;99.90;;;;;;5068787;28;20039;-72
2024/02/24 11:59:18;;;;;;;1999.90;999.90;;;11.20;99.90;;;;;;5059967;28;20040;-71
2024/02/24 12:01:44;;;;;;;1999.90;999.90;;;11.10;99.90;;;;;;5058443;28;20051;-72
2024/02/24 12:04:13;;;;;;;1999.90;999.90;;;11.00;99.90;;;;;;5070204;28;20402;-72
2024/02/24 12:06:39;;;;;;;1999.90;999.90;;;10.90;99.90;;;;;;5071596;28;20048;-72
2024/02/24 12:09:05;;;;;;;1999.90;999.90;;;10.80;99.90;;;;;;5043775;28;20033;-72
2024/02/24 12:11:31;;;;;;;1999.90;999.90;;;10.80;99.90;;;;;;5059767;28;20513;-72
2024/02/24 12:13:57;;;;;;;1999.90;999.90;;;10.70;99.90;;;;;;5068344;28;20024;-72
2024/02/24 12:16:24;;;;;;;1999.90;999.90;;;10.40;99.90;;;;;;5069147;28;20479;-72
2024/02/24 12:18:50;;;;;;;1999.90;999.90;;;10.30;99.90;;;;;;5067690;28;20059;-72